Time;durP1;ratioP1;P1;durP2;ratioP2;P2;SDS_P1;SDS_P2;PMS_P1;PMS_P2;Temp;Humidity;BMP_temperature;BMP_pressure;BME280_temperature;BME280_humidity;BME280_pressure;Samples;Min_cycle;Max_cycle;Signal;HPM_P1;HPM_P2
2022/11/22 00:01:29;;;;;;;;;;;3.90;99.90;;;;;;5153612;27;19911;-39
2022/11/22 00:03:55;;;;;;;;;;;3.90;99.90;;;;;;5154071;27;19918;-40
2022/11/22 00:06:20;;;;;;;;;;;3.90;99.90;;;;;;5154908;27;19963;-38
2022/11/22 00:08:47;;;;;;;;;;;3.90;99.90;;;;;;5153795;27;20250;-38
2022/11/22 00:11:12;;;;;;;;;;;3.90;99.90;;;;;;5152946;27;20190;-39
2022/11/22 00:13:38;;;;;;;;;;;3.90;99.90;;;;;;5155011;27;20500;-39
2022/11/22 00:16:03;;;;;;;;;;;3.90;99.90;;;;;;5154336;27;19911;-39
2022/11/22 00:18:29;;;;;;;;;;;3.90;99.90;;;;;;5152936;27;19935;-39
2022/11/22 00:20:55;;;;;;;;;;;3.90;99.90;;;;;;5153164;27;19998;-40
2022/11/22 00:23:21;;;;;;;;;;;3.90;99.90;;;;;;5154808;27;19907;-38
2022/11/22 00:25:46;;;;;;;;;;;3.90;99.90;;;;;;5153688;27;19933;-38
2022/11/22 00:28:12;;;;;;;;;;;3.90;99.90;;;;;;5154721;27;19911;-38
2022/11/22 00:30:37;;;;;;;;;;;3.90;99.90;;;;;;5154295;27;19919;-38
2022/11/22 00:33:03;;;;;;;;;;;3.90;99.90;;;;;;5153764;27;19914;-38
2022/11/22 00:35:28;;;;;;;;;;;3.90;99.90;;;;;;5154124;27;20258;-39
2022/11/22 00:37:53;;;;;;;;;;;3.90;99.90;;;;;;5154613;27;19994;-38
2022/11/22 00:40:19;;;;;;;;;;;3.90;99.90;;;;;;5152972;27;19911;-40
2022/11/22 00:42:44;;;;;;;;;;;3.90;99.90;;;;;;5154540;27;20273;-38
2022/11/22 00:45:10;;;;;;;;;;;3.90;99.90;;;;;;5153744;27;19934;-40
2022/11/22 00:47:35;;;;;;;;;;;3.80;99.90;;;;;;5153857;27;20391;-38
2022/11/22 00:50:01;;;;;;;;;;;3.80;99.90;;;;;;5153286;27;19926;-38
2022/11/22 00:52:26;;;;;;;;;;;3.80;99.90;;;;;;5153673;27;19907;-38
2022/11/22 00:54:52;;;;;;;;;;;3.80;99.90;;;;;;5154108;27;19915;-39
2022/11/22 00:57:17;;;;;;;;;;;3.80;99.90;;;;;;5160892;27;20357;-38
2022/11/22 00:59:43;;;;;;;;;;;3.80;99.90;;;;;;5141678;27;19963;-40
2022/11/22 01:02:08;;;;;;;;;;;3.80;99.90;;;;;;5160831;27;19907;-38
2022/11/22 01:04:34;;;;;;;;;;;3.80;99.90;;;;;;5160579;27;20269;-38
2022/11/22 01:06:59;;;;;;;;;;;3.80;99.90;;;;;;5160338;27;19992;-40
2022/11/22 01:09:24;;;;;;;;;;;3.80;99.90;;;;;;5160875;27;19964;-40
2022/11/22 01:11:50;;;;;;;;;;;3.80;99.90;;;;;;5161034;27;19911;-39
2022/11/22 01:14:16;;;;;;;;;;;3.80;99.90;;;;;;5160130;27;20014;-40
2022/11/22 01:16:42;;;;;;;;;;;3.80;99.90;;;;;;5161168;27;19914;-38
2022/11/22 01:19:07;;;;;;;;;;;3.80;99.90;;;;;;5161014;27;20403;-38
2022/11/22 01:21:33;;;;;;;;;;;3.80;99.90;;;;;;5160394;27;19953;-38
2022/11/22 01:23:59;;;;;;;;;;;3.80;99.90;;;;;;5160450;27;20310;-39
2022/11/22 01:26:24;;;;;;;;;;;3.80;99.90;;;;;;5160718;27;20428;-38
2022/11/22 01:28:50;;;;;;;;;;;3.80;99.90;;;;;;5159819;27;19907;-40
2022/11/22 01:31:15;;;;;;;;;;;3.80;99.90;;;;;;5160635;27;19964;-38
2022/11/22 01:33:41;;;;;;;;;;;3.90;99.90;;;;;;5160397;27;19956;-38
2022/11/22 01:36:06;;;;;;;;;;;3.90;99.90;;;;;;5159648;27;19934;-38
2022/11/22 01:38:31;;;;;;;;;;;3.90;99.90;;;;;;5160786;27;19910;-40
2022/11/22 01:40:57;;;;;;;;;;;3.90;99.90;;;;;;5160360;27;19907;-39
2022/11/22 01:43:24;;;;;;;;;;;3.90;99.90;;;;;;5160130;27;20407;-39
2022/11/22 01:45:53;;;;;;;;;;;3.90;99.90;;;;;;5160481;27;20269;-38
2022/11/22 01:48:21;;;;;;;;;;;4.00;99.90;;;;;;5160742;27;19921;-38
2022/11/22 01:50:48;;;;;;;;;;;4.00;99.90;;;;;;5159288;27;19919;-38
2022/11/22 01:53:24;;;;;;;;;;;4.00;99.90;;;;;;5160607;27;19914;-39
2022/11/22 01:55:50;;;;;;;;;;;4.00;99.90;;;;;;5159485;27;19915;-40
2022/11/22 01:58:18;;;;;;;;;;;4.00;99.90;;;;;;5159908;27;20143;-39
2022/11/22 02:00:44;;;;;;;;;;;4.00;99.90;;;;;;5160076;27;19933;-38
2022/11/22 02:03:10;;;;;;;;;;;4.10;99.90;;;;;;5159820;27;20425;-38
2022/11/22 02:05:36;;;;;;;;;;;4.10;99.90;;;;;;5159762;27;19922;-39
2022/11/22 02:08:07;;;;;;;;;;;4.10;99.90;;;;;;5157163;27;19907;-40
2022/11/22 02:10:36;;;;;;;;;;;4.10;99.90;;;;;;5156006;27;19919;-39
2022/11/22 02:13:02;;;;;;;;;;;4.10;99.90;;;;;;5157259;27;19929;-39
2022/11/22 02:15:28;;;;;;;;;;;4.10;99.90;;;;;;5156412;27;20417;-40
2022/11/22 02:17:55;;;;;;;;;;;4.10;99.90;;;;;;5155909;27;19917;-39
2022/11/22 02:20:20;;;;;;;;;;;4.20;99.90;;;;;;5156854;27;19918;-41
2022/11/22 02:22:56;;;;;;;;;;;4.10;99.90;;;;;;5157160;27;19911;-39
2022/11/22 02:25:25;;;;;;;;;;;4.20;99.90;;;;;;5155932;27;19911;-38
2022/11/22 02:27:50;;;;;;;;;;;4.20;99.90;;;;;;5156928;27;19907;-40
2022/11/22 02:30:16;;;;;;;;;;;4.20;99.90;;;;;;5156711;27;19967;-39
2022/11/22 02:32:42;;;;;;;;;;;4.20;99.90;;;;;;5155600;27;19911;-39
2022/11/22 02:35:18;;;;;;;;;;;4.20;99.90;;;;;;5156472;27;20357;-38
2022/11/22 02:37:44;;;;;;;;;;;4.20;99.90;;;;;;5156246;27;19907;-40
2022/11/22 02:40:12;;;;;;;;;;;4.20;99.90;;;;;;5156416;27;19911;-40
2022/11/22 02:42:39;;;;;;;;;;;4.30;99.90;;;;;;5156664;27;20365;-39
2022/11/22 02:45:04;;;;;;;;;;;4.30;99.90;;;;;;5154983;27;20361;-39
2022/11/22 02:47:30;;;;;;;;;;;4.30;99.90;;;;;;5156728;27;19907;-39
2022/11/22 02:49:55;;;;;;;;;;;4.30;99.90;;;;;;5155869;27;20497;-39
2022/11/22 02:52:21;;;;;;;;;;;4.30;99.90;;;;;;5155780;27;20398;-38
2022/11/22 02:54:46;;;;;;;;;;;4.30;99.90;;;;;;5156156;27;19911;-40
2022/11/22 02:57:12;;;;;;;;;;;4.40;99.90;;;;;;5156478;27;20562;-39
2022/11/22 02:59:37;;;;;;;;;;;4.40;99.90;;;;;;5155232;27;19915;-38
2022/11/22 03:02:03;;;;;;;;;;;4.40;99.90;;;;;;5156462;27;19949;-40
2022/11/22 03:04:28;;;;;;;;;;;4.40;99.90;;;;;;5155560;27;20318;-39
2022/11/22 03:06:54;;;;;;;;;;;4.40;99.90;;;;;;5155450;27;19907;-40
2022/11/22 03:09:20;;;;;;;;;;;4.40;99.90;;;;;;5155639;27;19955;-38
2022/11/22 03:11:46;;;;;;;;;;;4.40;99.90;;;;;;5156141;27;19938;-40
2022/11/22 03:14:13;;;;;;;;;;;4.40;99.90;;;;;;5154774;27;20006;-40
2022/11/22 03:16:38;;;;;;;;;;;4.50;99.90;;;;;;5155639;27;19911;-39
2022/11/22 03:19:04;;;;;;;;;;;4.50;99.90;;;;;;5155378;27;19915;-40
2022/11/22 03:21:29;;;;;;;;;;;4.50;99.90;;;;;;5134480;27;19950;-39
2022/11/22 03:23:54;;;;;;;;;;;4.50;99.90;;;;;;5135719;27;19907;-38
2022/11/22 03:26:20;;;;;;;;;;;4.50;99.90;;;;;;5155840;27;19907;-39
2022/11/22 03:28:45;;;;;;;;;;;4.60;99.90;;;;;;5155301;27;19964;-38
2022/11/22 03:31:11;;;;;;;;;;;4.60;99.90;;;;;;5155273;27;19963;-40
2022/11/22 03:33:36;;;;;;;;;;;4.60;99.90;;;;;;5155767;27;19930;-39
2022/11/22 03:36:02;;;;;;;;;;;4.60;99.90;;;;;;5154605;27;19915;-40
2022/11/22 03:38:27;;;;;;;;;;;4.70;99.90;;;;;;5155122;27;19911;-40
2022/11/22 03:40:53;;;;;;;;;;;4.70;99.90;;;;;;5154835;27;19915;-38
2022/11/22 03:43:19;;;;;;;;;;;4.70;99.90;;;;;;5154722;27;19914;-40
2022/11/22 03:45:45;;;;;;;;;;;4.70;99.90;;;;;;5154708;27;19971;-39
2022/11/22 03:48:10;;;;;;;;;;;4.70;99.90;;;;;;5154632;27;19911;-39
2022/11/22 03:50:36;;;;;;;;;;;4.70;99.90;;;;;;5154475;27;20309;-40
2022/11/22 03:53:01;;;;;;;;;;;4.70;99.90;;;;;;5155084;27;20422;-40
2022/11/22 03:55:27;;;;;;;;;;;4.80;99.90;;;;;;5154131;27;19915;-39
2022/11/22 03:57:52;;;;;;;;;;;4.70;99.90;;;;;;5155249;27;20402;-39
2022/11/22 04:00:18;;;;;;;;;;;4.80;99.90;;;;;;5154876;27;19918;-40
2022/11/22 04:02:43;;;;;;;;;;;4.70;99.90;;;;;;5154418;27;19960;-38
2022/11/22 04:05:09;;;;;;;;;;;4.80;99.90;;;;;;5154630;27;19915;-40
2022/11/22 04:07:34;;;;;;;;;;;4.80;99.90;;;;;;5154803;27;19953;-39
2022/11/22 04:10:00;;;;;;;;;;;4.80;99.90;;;;;;5153545;27;20022;-40
2022/11/22 04:12:25;;;;;;;;;;;4.80;99.90;;;;;;5155055;27;19959;-40
2022/11/22 04:15:06;;;;;;;;;;;4.80;99.90;;;;;;5154437;27;19911;-42
2022/11/22 04:17:46;;;;;;;;;;;4.80;99.90;;;;;;5154204;27;20415;-41
2022/11/22 04:23:08;;;;;;;;;;;4.90;99.90;;;;;;5154785;27;19973;-39
2022/11/22 04:25:35;;;;;;;;;;;4.90;99.90;;;;;;5153602;27;20425;-41
2022/11/22 04:28:01;;;;;;;;;;;4.90;99.90;;;;;;5154661;27;19951;-41
2022/11/22 04:33:12;;;;;;;;;;;4.90;99.90;;;;;;5154806;27;19914;-39
2022/11/22 04:35:38;;;;;;;;;;;4.90;99.90;;;;;;5154509;27;19911;-40
2022/11/22 04:38:04;;;;;;;;;;;4.90;99.90;;;;;;5153224;27;19963;-40
2022/11/22 04:40:30;;;;;;;;;;;4.90;99.90;;;;;;5153130;27;19918;-41
2022/11/22 04:45:40;;;;;;;;;;;4.90;99.90;;;;;;5153514;27;19961;-39
2022/11/22 04:48:05;;;;;;;;;;;5.00;99.90;;;;;;5154252;27;19954;-41
2022/11/22 04:53:15;;;;;;;;;;;5.00;99.90;;;;;;5153245;27;20421;-40
2022/11/22 04:55:42;;;;;;;;;;;5.00;99.90;;;;;;5153961;27;19922;-41
2022/11/22 04:58:08;;;;;;;;;;;5.00;99.90;;;;;;5153861;27;19915;-41
2022/11/22 05:00:33;;;;;;;;;;;5.00;99.90;;;;;;5153597;27;19907;-39
2022/11/22 05:02:59;;;;;;;;;;;5.00;99.90;;;;;;5153920;27;19911;-39
2022/11/22 05:05:25;;;;;;;;;;;5.10;99.90;;;;;;5153445;27;19911;-40
2022/11/22 05:07:50;;;;;;;;;;;5.10;99.90;;;;;;5153321;27;20514;-40
2022/11/22 05:10:16;;;;;;;;;;;5.10;99.90;;;;;;5153423;27;20022;-39
2022/11/22 05:12:41;;;;;;;;;;;5.10;99.90;;;;;;5153049;27;19917;-41
2022/11/22 05:15:07;;;;;;;;;;;5.10;99.90;;;;;;5153412;27;19911;-41
2022/11/22 05:17:33;;;;;;;;;;;5.20;99.90;;;;;;5153266;27;19911;-41
2022/11/22 05:19:58;;;;;;;;;;;5.20;99.90;;;;;;5153428;27;19929;-41
2022/11/22 05:25:11;;;;;;;;;;;5.20;99.90;;;;;;5154101;27;19968;-40
2022/11/22 05:27:37;;;;;;;;;;;5.20;99.90;;;;;;5152653;27;19911;-37
2022/11/22 05:30:03;;;;;;;;;;;5.20;99.90;;;;;;5153781;27;20434;-39
2022/11/22 05:32:29;;;;;;;;;;;5.30;99.90;;;;;;5153819;27;19918;-38
2022/11/22 05:34:54;;;;;;;;;;;5.30;99.90;;;;;;5152810;27;20001;-39
2022/11/22 05:37:21;;;;;;;;;;;5.30;99.90;;;;;;5153670;27;19961;-40
2022/11/22 05:39:46;;;;;;;;;;;5.30;99.90;;;;;;5152587;27;19915;-38
2022/11/22 05:42:12;;;;;;;;;;;5.40;99.90;;;;;;5154126;27;19915;-39
2022/11/22 05:44:37;;;;;;;;;;;5.40;99.90;;;;;;5156464;27;19911;-38
2022/11/22 05:47:03;;;;;;;;;;;5.40;99.90;;;;;;5156919;27;20361;-38
2022/11/22 05:49:28;;;;;;;;;;;5.40;99.90;;;;;;5155342;27;19922;-38
2022/11/22 05:51:54;;;;;;;;;;;5.50;99.90;;;;;;5157162;27;19918;-38
2022/11/22 05:54:19;;;;;;;;;;;5.50;99.90;;;;;;5157954;27;19966;-39
2022/11/22 05:56:46;;;;;;;;;;;5.50;99.90;;;;;;5156463;27;20391;-39
2022/11/22 05:59:12;;;;;;;;;;;5.50;99.90;;;;;;5156767;27;20346;-40
2022/11/22 06:01:37;;;;;;;;;;;5.50;99.90;;;;;;5157035;27;19918;-39
2022/11/22 06:04:03;;;;;;;;;;;5.50;99.90;;;;;;5156539;27;20370;-38
2022/11/22 06:06:28;;;;;;;;;;;5.50;99.90;;;;;;5157219;27;19999;-39
2022/11/22 06:08:54;;;;;;;;;;;5.60;99.90;;;;;;5156122;27;19907;-38
2022/11/22 06:11:20;;;;;;;;;;;5.60;99.90;;;;;;5156479;27;19925;-38
2022/11/22 06:13:47;;;;;;;;;;;5.60;99.90;;;;;;5156542;27;19935;-39
2022/11/22 06:16:13;;;;;;;;;;;5.50;99.90;;;;;;5155698;27;19960;-38
2022/11/22 06:18:39;;;;;;;;;;;5.50;99.90;;;;;;5156975;27;19911;-38
2022/11/22 06:21:06;;;;;;;;;;;5.60;99.90;;;;;;5156765;27;19907;-39
2022/11/22 06:23:31;;;;;;;;;;;5.60;99.90;;;;;;5156051;27;19947;-39
2022/11/22 06:26:01;;;;;;;;;;;5.60;99.90;;;;;;5155003;27;19956;-38
2022/11/22 06:28:27;;;;;;;;;;;5.50;99.90;;;;;;5155730;27;19923;-40
2022/11/22 06:30:53;;;;;;;;;;;5.50;99.90;;;;;;5155378;27;19915;-40
2022/11/22 06:33:19;;;;;;;;;;;5.50;99.90;;;;;;5155523;27;19907;-39
2022/11/22 06:35:44;;;;;;;;;;;5.60;99.90;;;;;;5155570;27;20393;-38
2022/11/22 06:38:10;;;;;;;;;;;5.60;99.90;;;;;;5154447;27;19907;-39
2022/11/22 06:40:35;;;;;;;;;;;5.50;99.90;;;;;;5155950;27;19925;-39
2022/11/22 06:43:01;;;;;;;;;;;5.50;99.90;;;;;;5154598;27;20314;-38
2022/11/22 06:45:26;;;;;;;;;;;5.60;99.90;;;;;;5155377;27;19915;-39
2022/11/22 06:47:51;;;;;;;;;;;5.60;99.90;;;;;;5154636;27;19907;-40
2022/11/22 06:50:17;;;;;;;;;;;5.60;99.90;;;;;;5154696;27;19919;-39
2022/11/22 06:52:42;;;;;;;;;;;5.60;99.90;;;;;;5154400;27;19962;-40
2022/11/22 06:55:08;;;;;;;;;;;5.70;99.90;;;;;;5154935;27;20293;-39
2022/11/22 06:57:33;;;;;;;;;;;5.70;99.90;;;;;;5155773;27;19913;-38
2022/11/22 06:59:59;;;;;;;;;;;5.70;99.90;;;;;;5153951;27;19911;-38
2022/11/22 07:02:24;;;;;;;;;;;5.80;99.90;;;;;;5154259;27;19911;-39
2022/11/22 07:04:50;;;;;;;;;;;5.80;99.90;;;;;;5155496;27;19911;-39
2022/11/22 07:07:15;;;;;;;;;;;5.90;99.90;;;;;;5154711;27;20354;-39
2022/11/22 07:09:41;;;;;;;;;;;5.90;99.90;;;;;;5155572;27;19919;-40
2022/11/22 07:12:06;;;;;;;;;;;5.90;99.90;;;;;;5154798;27;19911;-40
2022/11/22 07:14:32;;;;;;;;;;;5.90;99.90;;;;;;5155554;27;19950;-38
2022/11/22 07:16:57;;;;;;;;;;;5.90;99.90;;;;;;5155285;27;19907;-39
2022/11/22 07:19:23;;;;;;;;;;;5.90;99.90;;;;;;5154563;27;19918;-38
2022/11/22 07:21:48;;;;;;;;;;;5.90;99.90;;;;;;5154963;27;19998;-39
2022/11/22 07:24:14;;;;;;;;;;;5.90;99.90;;;;;;5154888;27;19911;-40
2022/11/22 07:26:39;;;;;;;;;;;5.80;99.90;;;;;;5152869;27;20394;-39
2022/11/22 07:29:04;;;;;;;;;;;5.90;99.90;;;;;;5152925;27;19955;-39
2022/11/22 07:31:30;;;;;;;;;;;5.90;99.90;;;;;;5154887;27;19915;-39
2022/11/22 07:33:56;;;;;;;;;;;5.90;99.90;;;;;;5154212;27;20039;-39
2022/11/22 07:36:22;;;;;;;;;;;5.90;99.90;;;;;;5154797;27;19911;-38
2022/11/22 07:38:48;;;;;;;;;;;5.90;99.90;;;;;;5155039;27;19974;-37
2022/11/22 07:41:14;;;;;;;;;;;6.00;99.90;;;;;;5154093;27;19907;-38
2022/11/22 07:43:39;;;;;;;;;;;6.00;99.90;;;;;;5154932;27;19914;-40
2022/11/22 07:46:07;;;;;;;;;;;6.00;99.90;;;;;;5154706;27;19913;-39
2022/11/22 07:48:32;;;;;;;;;;;6.00;99.90;;;;;;5153814;27;19959;-39
2022/11/22 07:51:05;;;;;;;;;;;6.10;99.90;;;;;;5154379;27;19923;-39
2022/11/22 07:53:31;;;;;;;;;;;6.10;99.90;;;;;;5155247;27;19960;-39
2022/11/22 07:55:59;;;;;;;;;;;6.10;99.90;;;;;;5154430;27;19911;-39
2022/11/22 07:58:24;;;;;;;;;;;6.10;99.90;;;;;;5155070;27;20006;-39
2022/11/22 08:00:50;;;;;;;;;;;6.10;99.90;;;;;;5154932;27;19950;-40
2022/11/22 08:03:15;;;;;;;;;;;6.20;99.90;;;;;;5154190;27;19907;-40
2022/11/22 08:05:41;;;;;;;;;;;6.20;99.90;;;;;;5153916;27;19915;-38
2022/11/22 08:08:06;;;;;;;;;;;6.20;99.90;;;;;;5154917;27;19955;-39
2022/11/22 08:10:32;;;;;;;;;;;6.20;99.90;;;;;;5154005;27;19915;-40
2022/11/22 08:12:59;;;;;;;;;;;6.20;99.90;;;;;;5154870;27;19907;-39
2022/11/22 08:15:24;;;;;;;;;;;6.20;99.90;;;;;;5154132;27;19907;-40
2022/11/22 08:17:50;;;;;;;;;;;6.20;99.90;;;;;;5154868;27;19914;-39
2022/11/22 08:20:15;;;;;;;;;;;6.20;99.90;;;;;;5154759;27;20385;-41
2022/11/22 08:22:41;;;;;;;;;;;6.20;99.90;;;;;;5153939;27;19922;-38
2022/11/22 08:25:11;;;;;;;;;;;6.20;99.90;;;;;;5154697;27;20106;-39
2022/11/22 08:27:40;;;;;;;;;;;6.20;99.90;;;;;;5154709;27;19999;-39
2022/11/22 08:30:06;;;;;;;;;;;6.30;99.90;;;;;;5153207;27;19916;-39
2022/11/22 08:32:32;;;;;;;;;;;6.30;99.90;;;;;;5153343;27;19915;-39
2022/11/22 08:34:57;;;;;;;;;;;6.30;99.90;;;;;;5153457;27;19911;-40
2022/11/22 08:37:23;;;;;;;;;;;6.40;99.90;;;;;;5152659;27;20361;-39
2022/11/22 08:39:48;;;;;;;;;;;6.40;99.90;;;;;;5153198;27;19911;-38
2022/11/22 08:42:13;;;;;;;;;;;6.40;99.90;;;;;;5153858;27;19922;-41
2022/11/22 08:44:39;;;;;;;;;;;6.40;99.90;;;;;;5153100;27;19914;-38
2022/11/22 08:47:04;;;;;;;;;;;6.40;99.90;;;;;;5143789;27;19946;-39
2022/11/22 08:49:30;;;;;;;;;;;6.40;99.90;;;;;;5153100;27;20330;-40
2022/11/22 08:51:55;;;;;;;;;;;6.40;99.90;;;;;;5152089;27;19911;-38
2022/11/22 08:54:21;;;;;;;;;;;6.40;99.90;;;;;;5153337;27;19993;-40
2022/11/22 08:56:46;;;;;;;;;;;6.40;99.90;;;;;;5153714;27;19918;-40
2022/11/22 08:59:11;;;;;;;;;;;6.40;99.90;;;;;;5153320;27;20563;-38
2022/11/22 09:01:37;;;;;;;;;;;6.40;99.90;;;;;;5153789;27;19919;-39
2022/11/22 09:04:02;;;;;;;;;;;6.40;99.90;;;;;;5153314;27;19911;-41
2022/11/22 09:06:29;;;;;;;;;;;6.40;99.90;;;;;;5152725;27;20401;-39
2022/11/22 09:08:55;;;;;;;;;;;6.40;99.90;;;;;;5153773;27;19957;-39
2022/11/22 09:11:21;;;;;;;;;;;6.40;99.90;;;;;;5153507;27;19971;-40
2022/11/22 09:13:46;;;;;;;;;;;6.40;99.90;;;;;;5153304;27;19959;-39
2022/11/22 09:16:16;;;;;;;;;;;6.40;99.90;;;;;;5153459;27;20359;-39
2022/11/22 09:18:42;;;;;;;;;;;6.50;99.90;;;;;;5157060;27;20079;-40
2022/11/22 09:21:09;;;;;;;;;;;6.50;99.90;;;;;;5158325;27;20373;-41
2022/11/22 09:23:35;;;;;;;;;;;6.50;99.90;;;;;;5157791;27;19907;-43
2022/11/22 09:26:04;;;;;;;;;;;6.50;99.90;;;;;;5156765;27;19942;-41
2022/11/22 09:28:30;;;;;;;;;;;6.60;99.90;;;;;;5157003;27;20001;-41
2022/11/22 09:31:15;;;;;;;;;;;6.70;99.90;;;;;;5157560;27;20346;-41
2022/11/22 09:33:43;;;;;;;;;;;6.80;99.90;;;;;;5153471;27;19911;-40
2022/11/22 09:36:13;;;;;;;;;;;6.80;99.90;;;;;;5156359;27;19917;-41
2022/11/22 09:38:38;;;;;;;;;;;6.80;99.90;;;;;;5154312;27;19919;-42
2022/11/22 09:41:22;;;;;;;;;;;6.90;99.90;;;;;;5156593;27;19914;-41
2022/11/22 09:43:59;;;;;;;;;;;6.90;99.90;;;;;;5156394;27;19971;-40
2022/11/22 09:46:24;;;;;;;;;;;7.00;99.90;;;;;;5154112;27;19950;-41
2022/11/22 09:48:58;;;;;;;;;;;7.10;99.90;;;;;;5151664;27;19999;-43
2022/11/22 09:51:26;;;;;;;;;;;7.20;99.90;;;;;;5145800;27;19991;-41
2022/11/22 09:53:54;;;;;;;;;;;7.20;99.90;;;;;;5155774;27;20383;-42
2022/11/22 09:56:22;;;;;;;;;;;7.20;99.90;;;;;;5156870;27;19911;-43
2022/11/22 09:58:51;;;;;;;;;;;7.30;99.90;;;;;;5156535;27;20362;-39
2022/11/22 10:01:19;;;;;;;;;;;7.30;99.90;;;;;;5156249;27;19911;-41
2022/11/22 10:03:50;;;;;;;;;;;7.30;99.90;;;;;;5157135;27;19938;-41
2022/11/22 10:06:33;;;;;;;;;;;7.30;99.90;;;;;;5157312;27;20346;-42
2022/11/22 10:09:17;;;;;;;;;;;7.30;99.90;;;;;;5156011;27;19911;-40
2022/11/22 10:11:48;;;;;;;;;;;7.30;99.90;;;;;;5156516;27;19970;-41
2022/11/22 10:14:34;;;;;;;;;;;7.30;99.90;;;;;;5156768;27;19965;-40
2022/11/22 10:17:12;;;;;;;;;;;7.30;99.90;;;;;;5137897;27;19950;-40
2022/11/22 10:19:40;;;;;;;;;;;7.40;99.90;;;;;;5157045;27;19915;-40
2022/11/22 10:22:12;;;;;;;;;;;7.50;99.90;;;;;;5156277;27;19907;-41
2022/11/22 10:24:37;;;;;;;;;;;7.50;99.90;;;;;;5156690;27;20334;-41
2022/11/22 10:27:03;;;;;;;;;;;7.60;99.90;;;;;;5156508;27;19998;-43
2022/11/22 10:29:29;;;;;;;;;;;7.60;99.90;;;;;;5154145;27;19915;-44
2022/11/22 10:31:57;;;;;;;;;;;7.60;99.90;;;;;;5156126;27;20062;-40
2022/11/22 10:34:38;;;;;;;;;;;7.70;99.90;;;;;;5154672;27;20312;-39
2022/11/22 10:37:24;;;;;;;;;;;7.70;99.90;;;;;;5152070;27;20285;-40
2022/11/22 10:39:50;;;;;;;;;;;7.80;99.90;;;;;;5156653;27;19965;-42
2022/11/22 10:42:15;;;;;;;;;;;7.90;99.90;;;;;;5156130;27;19963;-40
2022/11/22 10:44:40;;;;;;;;;;;7.90;99.90;;;;;;5155734;27;19958;-41
2022/11/22 10:47:29;;;;;;;;;;;8.00;99.90;;;;;;5156516;27;19907;-40
2022/11/22 10:50:07;;;;;;;;;;;8.10;99.90;;;;;;5155836;27;19998;-40
2022/11/22 10:52:47;;;;;;;;;;;8.30;99.90;;;;;;5156025;27;19911;-41
2022/11/22 10:55:32;;;;;;;;;;;8.30;99.90;;;;;;5156460;27;19998;-41
2022/11/22 10:58:00;;;;;;;;;;;8.40;99.90;;;;;;5154431;27;19915;-40
2022/11/22 11:00:27;;;;;;;;;;;8.60;99.90;;;;;;5156267;27;20426;-41
2022/11/22 11:02:53;;;;;;;;;;;8.60;99.90;;;;;;5155826;27;19907;-41
2022/11/22 11:05:22;;;;;;;;;;;8.60;99.90;;;;;;5154522;27;20002;-41
2022/11/22 11:07:49;;;;;;;;;;;8.60;99.90;;;;;;5155984;27;19964;-40
2022/11/22 11:10:16;;;;;;;;;;;8.60;99.90;;;;;;5149712;27;20276;-41
2022/11/22 11:12:44;;;;;;;;;;;8.70;99.90;;;;;;5151832;27;19922;-43
2022/11/22 11:15:19;;;;;;;;;;;8.70;99.90;;;;;;5152450;27;19918;-41
2022/11/22 11:17:46;;;;;;;;;;;8.70;99.90;;;;;;5155071;27;19961;-42
2022/11/22 11:20:40;;;;;;;;;;;8.60;99.90;;;;;;5151355;27;19919;-40
2022/11/22 11:23:07;;;;;;;;;;;8.50;99.90;;;;;;5134526;27;19915;-42
2022/11/22 11:25:39;;;;;;;;;;;8.50;99.90;;;;;;5154331;27;20033;-42
2022/11/22 11:28:04;;;;;;;;;;;8.50;99.90;;;;;;5154961;27;19907;-40
2022/11/22 11:30:59;;;;;;;;;;;8.50;99.90;;;;;;5154348;27;19919;-41
2022/11/22 11:33:29;;;;;;;;;;;8.50;99.90;;;;;;5131505;27;20404;-40
2022/11/22 11:35:56;;;;;;;;;;;8.60;99.90;;;;;;5152554;27;19915;-41
2022/11/22 11:38:27;;;;;;;;;;;8.60;99.90;;;;;;5154747;27;19911;-41
2022/11/22 11:40:53;;;;;;;;;;;8.50;99.90;;;;;;5150974;27;20152;-42
2022/11/22 11:43:19;;;;;;;;;;;8.50;99.90;;;;;;5154937;27;20087;-40
2022/11/22 11:45:44;;;;;;;;;;;8.50;99.90;;;;;;5155353;27;20266;-40
2022/11/22 11:48:26;;;;;;;;;;;8.50;99.90;;;;;;5154436;27;19918;-41
2022/11/22 11:50:51;;;;;;;;;;;8.50;99.90;;;;;;5153321;27;20014;-42
2022/11/22 11:53:26;;;;;;;;;;;8.60;99.90;;;;;;5155102;27;20005;-41
2022/11/22 11:55:51;;;;;;;;;;;8.60;99.90;;;;;;5154876;27;19935;-42
2022/11/22 11:58:22;;;;;;;;;;;8.60;99.90;;;;;;5155116;27;19915;-40
2022/11/22 12:00:48;;;;;;;;;;;8.60;99.90;;;;;;5154357;27;19919;-41
2022/11/22 12:03:15;;;;;;;;;;;8.60;99.90;;;;;;5153903;27;19918;-43
2022/11/22 12:05:41;;;;;;;;;;;8.60;99.90;;;;;;5152353;27;19911;-41
2022/11/22 12:08:25;;;;;;;;;;;8.60;99.90;;;;;;5151300;27;19907;-42
2022/11/22 12:10:59;;;;;;;;;;;8.60;99.90;;;;;;5152435;27;20231;-41
2022/11/22 12:13:29;;;;;;;;;;;8.70;99.90;;;;;;5152140;27;20480;-42
2022/11/22 12:16:02;;;;;;;;;;;8.60;99.90;;;;;;5151167;27;20007;-41
2022/11/22 12:18:38;;;;;;;;;;;8.70;99.90;;;;;;5152664;27;19965;-42
2022/11/22 12:21:06;;;;;;;;;;;8.70;99.90;;;;;;5152892;27;20408;-41
2022/11/22 12:23:36;;;;;;;;;;;8.70;99.90;;;;;;5152918;27;19915;-42
2022/11/22 12:26:02;;;;;;;;;;;8.70;99.90;;;;;;5154014;27;19934;-42
2022/11/22 12:28:28;;;;;;;;;;;8.70;99.90;;;;;;5154708;27;20387;-41
2022/11/22 12:30:55;;;;;;;;;;;8.70;99.90;;;;;;5153231;27;20390;-39
2022/11/22 12:33:27;;;;;;;;;;;8.70;99.90;;;;;;5154287;27;19911;-41
2022/11/22 12:35:53;;;;;;;;;;;8.70;99.90;;;;;;5153429;27;20467;-41
2022/11/22 12:38:22;;;;;;;;;;;8.70;99.90;;;;;;5153780;27;19911;-40
2022/11/22 12:40:49;;;;;;;;;;;8.70;99.90;;;;;;5153991;27;20329;-39
2022/11/22 12:43:24;;;;;;;;;;;8.60;99.90;;;;;;5153314;27;19911;-42
2022/11/22 12:45:55;;;;;;;;;;;8.60;99.90;;;;;;5154041;27;19918;-42
2022/11/22 12:48:24;;;;;;;;;;;8.50;99.90;;;;;;5153077;27;20349;-40
2022/11/22 12:50:52;;;;;;;;;;;8.50;99.90;;;;;;5151890;27;19926;-41
2022/11/22 12:53:32;;;;;;;;;;;8.50;99.90;;;;;;5152157;27;19922;-40
2022/11/22 12:56:10;;;;;;;;;;;8.50;99.90;;;;;;5143379;27;19918;-41
2022/11/22 12:58:38;;;;;;;;;;;8.50;99.90;;;;;;5147820;27;19998;-41
2022/11/22 13:01:13;;;;;;;;;;;8.50;99.90;;;;;;5153358;27;20366;-40
2022/11/22 13:03:44;;;;;;;;;;;8.60;99.90;;;;;;5148763;27;20092;-40
2022/11/22 13:06:10;;;;;;;;;;;8.50;99.90;;;;;;5152444;27;19907;-40
2022/11/22 13:08:46;;;;;;;;;;;8.50;99.90;;;;;;5152912;27;19918;-42
2022/11/22 13:11:17;;;;;;;;;;;8.40;99.90;;;;;;5151784;27;19926;-41
2022/11/22 13:13:46;;;;;;;;;;;8.40;99.90;;;;;;5153005;27;19919;-41
2022/11/22 13:16:12;;;;;;;;;;;8.50;99.90;;;;;;5153107;27;19911;-39
2022/11/22 13:18:47;;;;;;;;;;;8.50;99.90;;;;;;5153028;27;19912;-40
2022/11/22 13:21:31;;;;;;;;;;;8.40;99.90;;;;;;5153349;27;19942;-41
2022/11/22 13:24:07;;;;;;;;;;;8.40;99.90;;;;;;5152806;27;19918;-42
2022/11/22 13:26:51;;;;;;;;;;;8.40;99.90;;;;;;5147974;27;19994;-41
2022/11/22 13:29:21;;;;;;;;;;;8.40;99.90;;;;;;5152608;27;20319;-43
2022/11/22 13:32:22;;;;;;;;;;;8.40;99.90;;;;;;5151154;27;19926;-40
2022/11/22 13:35:07;;;;;;;;;;;8.40;99.90;;;;;;5086608;28;19920;-40
2022/11/22 13:37:35;;;;;;;;;;;8.30;99.90;;;;;;5140865;27;19912;-41
2022/11/22 13:40:08;;;;;;;;;;;8.30;99.90;;;;;;5151074;27;20014;-40
2022/11/22 13:42:33;;;;;;;;;;;8.30;99.90;;;;;;5153567;27;19930;-41
2022/11/22 13:44:59;;;;;;;;;;;8.20;99.90;;;;;;5152694;27;20370;-39
2022/11/22 13:47:27;;;;;;;;;;;8.20;99.90;;;;;;5153343;27;19963;-41
2022/11/22 13:49:53;;;;;;;;;;;8.20;99.90;;;;;;5153541;27;19926;-40
2022/11/22 13:52:18;;;;;;;;;;;8.20;99.90;;;;;;5153854;27;19918;-39
2022/11/22 13:54:46;;;;;;;;;;;8.20;99.90;;;;;;5152882;27;19914;-41
2022/11/22 13:57:30;;;;;;;;;;;8.10;99.90;;;;;;5148718;27;19972;-41
2022/11/22 14:00:14;;;;;;;;;;;8.10;99.90;;;;;;5148820;27;19912;-39
2022/11/22 14:02:45;;;;;;;;;;;8.10;99.90;;;;;;5154058;27;19907;-39
2022/11/22 14:05:23;;;;;;;;;;;8.10;99.90;;;;;;5156865;27;19964;-41
2022/11/22 14:07:50;;;;;;;;;;;8.00;99.90;;;;;;5150902;27;19918;-40
2022/11/22 14:10:27;;;;;;;;;;;8.00;99.90;;;;;;5156924;27;19971;-40
2022/11/22 14:12:58;;;;;;;;;;;8.00;99.90;;;;;;5147181;27;19912;-43
2022/11/22 14:15:43;;;;;;;;;;;8.00;99.90;;;;;;5143315;27;20323;-41
2022/11/22 14:18:30;;;;;;;;;;;8.00;99.90;;;;;;5143052;27;19915;-40
2022/11/22 14:21:14;;;;;;;;;;;8.00;99.90;;;;;;5147931;27;19915;-41
2022/11/22 14:23:58;;;;;;;;;;;7.90;99.90;;;;;;5151012;27;20315;-40
2022/11/22 14:26:24;;;;;;;;;;;7.90;99.90;;;;;;5152642;27;20370;-39
2022/11/22 14:29:08;;;;;;;;;;;7.90;99.90;;;;;;5150717;27;19946;-41
2022/11/22 14:31:34;;;;;;;;;;;7.90;99.90;;;;;;5149640;27;19919;-40
2022/11/22 14:34:13;;;;;;;;;;;7.80;99.90;;;;;;5149144;27;19911;-41
2022/11/22 14:36:38;;;;;;;;;;;7.80;99.90;;;;;;5151988;27;19945;-40
2022/11/22 14:39:22;;;;;;;;;;;7.80;99.90;;;;;;5154323;27;19911;-39
2022/11/22 14:41:48;;;;;;;;;;;7.80;99.90;;;;;;5148249;27;20013;-39
2022/11/22 14:44:18;;;;;;;;;;;7.70;99.90;;;;;;5155076;27;20006;-38
2022/11/22 14:46:45;;;;;;;;;;;7.70;99.90;;;;;;5147245;27;20347;-40
2022/11/22 14:49:14;;;;;;;;;;;7.70;99.90;;;;;;5148461;27;20360;-40
2022/11/22 14:51:40;;;;;;;;;;;7.70;99.90;;;;;;5150039;27;19923;-41